Time;durP1;ratioP1;P1;durP2;ratioP2;P2;SDS_P1;SDS_P2;PMS_P1;PMS_P2;Temp;Humidity;BMP_temperature;BMP_pressure;BME280_temperature;BME280_humidity;BME280_pressure;Samples;Min_cycle;Max_cycle;Signal;HPM_P1;HPM_P2
2021/06/15 00:01:14;;;;;;;4.75;4.35;;;;;;;13.23;75.15;94378.98;833878;71;32671;-74
2021/06/15 00:16:12;;;;;;;4.53;4.22;;;;;;;13.05;75.50;94377.94;828208;71;31958;-77
2021/06/15 00:31:09;;;;;;;4.25;3.95;;;;;;;12.88;75.35;94364.95;834328;71;30224;-77
2021/06/15 00:46:15;;;;;;;3.87;3.58;;;;;;;12.79;74.89;94371.52;827774;71;32620;-76
2021/06/15 01:01:15;;;;;;;4.45;4.10;;;;;;;12.72;75.55;94390.14;828549;71;32728;-76
2021/06/15 01:16:18;;;;;;;4.50;4.20;;;;;;;12.56;75.87;94364.20;828354;71;30217;-76
2021/06/15 01:31:18;;;;;;;4.65;4.25;;;;;;;12.72;76.07;94384.33;828420;71;31732;-78
2021/06/15 01:46:15;;;;;;;3.95;3.60;;;;;;;12.70;75.54;94366.73;828195;71;29922;-77
2021/06/15 02:01:10;;;;;;;4.10;3.80;;;;;;;12.62;74.54;94353.00;834021;71;30249;-77
2021/06/15 02:16:15;;;;;;;3.80;3.50;;;;;;;12.57;74.67;94336.81;828078;71;32781;-78
2021/06/15 02:31:21;;;;;;;5.22;3.55;;;;;;;12.54;75.04;94339.27;827336;71;32769;-76
2021/06/15 02:46:11;;;;;;;4.35;3.95;;;;;;;12.54;75.32;94343.22;833993;71;29760;-79
2021/06/15 03:16:10;;;;;;;4.17;3.87;;;;;;;12.62;74.76;94370.88;828375;71;29855;-78
2021/06/15 03:31:17;;;;;;;4.65;4.25;;;;;;;12.78;74.28;94423.92;827528;71;33124;-76
2021/06/15 03:46:13;;;;;;;4.60;4.20;;;;;;;13.00;73.84;94424.95;827952;71;30929;-77
2021/06/15 04:01:14;;;;;;;4.08;3.80;;;;;;;17.28;71.11;94407.54;828153;71;29849;-79
2021/06/15 04:16:45;;;;;;;4.67;4.08;;;;;;;19.66;59.30;94438.53;815649;72;31815;-77
2021/06/15 04:31:14;;;;;;;4.47;4.17;;;;;;;19.90;54.59;94435.66;828411;71;30382;-76
2021/06/15 04:46:17;;;;;;;4.30;4.00;;;;;;;18.88;55.24;94436.89;828061;71;30332;-78
2021/06/15 05:01:18;;;;;;;3.67;3.37;;;;;;;18.45;58.23;94443.17;821196;70;31814;-80
2021/06/15 05:16:14;;;;;;;4.55;4.12;;;;;;;20.14;54.35;94450.63;825641;71;32036;-77
2021/06/15 05:31:13;;;;;;;5.70;4.95;;;;;;;19.92;52.14;94460.05;829055;71;30990;-77
2021/06/15 05:46:15;;;;;;;5.15;4.75;;;;;;;19.41;53.20;94487.97;833947;71;31740;-78
2021/06/15 06:01:09;;;;;;;6.67;6.17;;;;;;;18.96;54.07;94483.83;834131;71;29245;-78
2021/06/15 06:16:15;;;;;;;7.92;7.22;;;;;;;19.37;53.78;94479.12;825518;70;32388;-75
2021/06/15 06:31:09;;;;;;;4.87;4.47;;;;;;;21.39;51.90;94472.72;830017;71;29208;-77
2021/06/15 06:46:14;;;;;;;4.73;4.33;;;;;;;22.97;46.52;94468.94;801335;74;31862;-78
2021/06/15 07:01:08;;;;;;;5.00;4.10;;;;;;;23.98;43.73;94457.12;828940;71;28673;-78
2021/06/15 07:16:15;;;;;;;4.43;4.13;;;;;;;25.03;41.15;94452.19;834011;71;31691;-77
2021/06/15 07:31:14;;;;;;;5.60;5.10;;;;;;;25.12;40.62;94443.96;827655;71;32182;-79
2021/06/15 07:46:15;;;;;;;5.27;4.60;;;;;;;25.74;39.56;94425.34;827426;71;32663;-79
2021/06/15 08:01:14;;;;;;;5.57;5.07;;;;;;;16.07;37.94;92841.58;827622;71;33266;-81
2021/06/15 08:16:14;;;;;;;4.50;4.20;;;;;;;;;;833412;71;32632;-79
2021/06/15 08:31:08;;;;;;;4.80;4.50;;;;;;;;;;829973;71;30282;-80
2021/06/15 08:46:16;;;;;;;4.43;4.13;;;;;;;27.84;35.04;94397.45;827893;71;33126;-80
2021/06/15 09:16:23;;;;;;;3.80;3.60;;;;;;;27.67;34.00;94378.36;828199;71;30297;-77
2021/06/15 09:31:14;;;;;;;3.60;3.40;;;;;;;28.22;33.30;94375.28;829337;71;32645;-76
2021/06/15 09:46:11;;;;;;;3.60;3.40;;;;;;;28.22;33.15;94359.67;834301;71;29768;-77
2021/06/15 10:01:10;;;;;;;3.80;3.60;;;;;;;27.56;34.34;94350.16;818387;71;30264;-81
2021/06/15 10:16:15;;;;;;;3.53;3.23;;;;;;;28.00;33.70;94351.83;833979;71;32662;-79
2021/06/15 10:31:16;;;;;;;3.30;3.10;;;;;;;28.07;33.35;94346.36;827108;71;33168;-80
2021/06/15 10:46:21;;;;;;;3.10;2.90;;;;;;;27.64;32.56;94324.48;834489;71;32767;-79
2021/06/15 11:01:25;;;;;;;3.43;3.13;;;;;;;27.54;32.83;94309.95;833902;71;32770;-75
2021/06/15 11:16:25;;;;;;;2.80;2.70;;;;;;;26.51;33.89;94305.56;828250;71;30194;-78
2021/06/15 11:31:24;;;;;;;3.47;3.20;;;;;;;25.87;35.29;94291.29;828631;71;32109;-80
2021/06/15 11:46:13;;;;;;;3.67;3.47;;;;;;;25.55;38.42;94294.84;828820;71;30187;-84
2021/06/15 12:01:15;;;;;;;3.60;3.37;;;;;;;25.61;36.99;94280.44;834595;71;32394;-82
2021/06/15 12:16:30;;;;;;;3.03;2.90;;;;;;;25.12;37.26;94265.94;829025;71;32690;-85
2021/06/15 12:31:15;;;;;;;3.87;3.47;;;;;;;25.12;37.41;94260.01;828586;71;30323;-84
2021/06/15 12:46:23;;;;;;;3.73;3.33;;;;;;;24.94;37.54;94272.66;823694;71;32664;-83
2021/06/15 13:01:25;;;;;;;3.43;2.90;;;;;;;24.63;38.04;94255.44;828744;71;32049;-80
2021/06/15 13:16:16;;;;;;;2.97;2.77;;;;;;;24.38;38.62;94248.13;828455;71;32121;-79
2021/06/15 13:31:13;;;;;;;2.83;2.63;;;;;;;24.77;37.96;94238.75;830003;71;30349;-81
2021/06/15 13:46:11;;;;;;;2.87;2.67;;;;;;;24.67;37.60;94203.30;834499;71;29754;-82
2021/06/15 14:01:12;;;;;;;4.47;2.50;;;;;;;23.97;38.63;94219.72;828679;71;29667;-83
2021/06/15 14:16:09;;;;;;;3.07;2.63;;;;;;;23.77;39.37;94211.24;829154;71;29795;-80
2021/06/15 14:31:16;;;;;;;2.57;2.37;;;;;;;23.62;39.80;94210.20;828765;71;31853;-82
2021/06/15 14:46:15;;;;;;;3.47;2.93;;;;;;;23.28;40.67;94206.46;828875;71;33463;-80
2021/06/15 15:16:10;;;;;;;2.97;2.77;;;;;;;22.28;41.61;94177.13;834582;71;30363;-79
2021/06/15 15:31:09;;;;;;;3.60;3.30;;;;;;;22.06;42.65;94176.94;829163;71;28670;-77
2021/06/15 15:46:09;;;;;;;3.27;3.07;;;;;;;22.06;43.22;94190.84;834150;71;29253;-78
2021/06/15 16:01:14;;;;;;;3.00;2.80;;;;;;;21.67;43.13;94189.91;833921;71;31729;-79
2021/06/15 16:16:18;;;;;;;4.10;3.67;;;;;;;21.17;44.14;94168.74;827480;71;31706;-77
2021/06/15 16:31:09;;;;;;;3.60;3.33;;;;;;;20.85;45.48;94197.67;836344;70;29227;-79
2021/06/15 16:46:15;;;;;;;3.00;2.80;;;;;;;20.60;46.35;94208.18;834365;71;31712;-76
2021/06/15 17:01:08;;;;;;;3.95;3.50;;;;;;;20.48;47.22;94212.35;828417;71;28773;-81
2021/06/15 17:16:09;;;;;;;3.72;3.40;;;;;;;20.30;48.09;94222.72;834034;71;29344;-78
2021/06/15 17:31:16;;;;;;;3.27;3.08;;;;;;;20.10;49.20;94227.34;827463;71;32234;-79
2021/06/15 17:46:12;;;;;;;3.47;3.17;;;;;;;19.91;50.08;94232.16;835737;71;31091;-79
2021/06/15 18:01:10;;;;;;;3.60;3.25;;;;;;;19.79;51.21;94216.34;828379;71;29768;-77
2021/06/15 18:16:13;;;;;;;3.40;3.15;;;;;;;19.67;52.31;94233.73;831420;71;29927;-83
2021/06/15 18:31:20;;;;;;;3.30;3.00;;;;;;;19.51;53.50;94223.95;834086;71;32194;-79
2021/06/15 18:46:14;;;;;;;3.10;2.90;;;;;;;19.38;54.40;94224.67;827762;71;32217;-81
2021/06/15 19:01:15;;;;;;;3.20;2.90;;;;;;;19.31;54.72;94237.05;828283;71;31667;-83
2021/06/15 19:16:18;;;;;;;3.20;3.00;;;;;;;19.16;55.98;94249.27;829067;71;31897;-85
2021/06/15 19:31:15;;;;;;;5.30;4.90;;;;;;;18.95;57.36;94247.69;827640;71;31712;-79
2021/06/15 19:46:17;;;;;;;3.35;3.10;;;;;;;18.76;58.62;94252.95;834223;71;31745;-81
2021/06/15 20:01:16;;;;;;;4.17;3.87;;;;;;;18.69;60.84;94248.78;834259;71;31717;-83
2021/06/15 20:16:10;;;;;;;3.62;3.33;;;;;;;18.87;60.80;94244.67;829999;71;29914;-83
2021/06/15 20:31:14;;;;;;;4.20;3.80;;;;;;;19.08;60.55;94264.86;834680;71;31700;-81
2021/06/15 20:46:08;;;;;;;3.95;3.65;;;;;;;19.20;60.42;94267.41;834376;71;28792;-83
2021/06/15 21:16:15;;;;;;;3.65;3.40;;;;;;;19.32;60.41;94254.55;833992;71;31714;-84
2021/06/15 21:31:13;;;;;;;3.67;3.42;;;;;;;19.36;60.60;94254.84;793965;74;29906;-82
2021/06/15 21:46:08;;;;;;;3.70;3.40;;;;;;;19.39;60.50;94253.37;829961;71;29216;-83
2021/06/15 22:01:10;;;;;;;3.60;3.40;;;;;;;19.35;60.59;94257.28;828336;71;29243;-81
2021/06/15 22:16:14;;;;;;;4.40;3.15;;;;;;;19.35;60.82;94241.89;829886;71;31821;-82
2021/06/15 22:31:17;;;;;;;3.50;3.30;;;;;;;19.24;61.08;94227.58;829256;71;31784;-82
2021/06/15 22:46:11;;;;;;;4.33;3.80;;;;;;;19.16;61.50;94200.06;835908;70;30408;-84
2021/06/15 23:01:14;;;;;;;3.35;3.15;;;;;;;19.11;62.03;94192.37;823595;71;31806;-82
2021/06/15 23:16:20;;;;;;;4.12;3.83;;;;;;;19.16;62.05;94201.39;828348;71;31790;-81
2021/06/15 23:31:16;;;;;;;5.78;4.55;;;;;;;19.15;62.22;94201.20;827356;71;31760;-83
2021/06/15 23:46:15;;;;;;;4.28;4.08;;;;;;;19.21;62.10;94210.44;834152;71;32641;-82
